Time;durP1;ratioP1;P1;durP2;ratioP2;P2;SDS_P1;SDS_P2;PMS_P1;PMS_P2;Temp;Humidity;BMP_temperature;BMP_pressure;BME280_temperature;BME280_humidity;BME280_pressure;Samples;Min_cycle;Max_cycle;Signal;HPM_P1;HPM_P2
2022/12/13 00:02:18;;;;;;;10.33;5.17;;;;;;;-141.28;100.00;52766.91;5093274;28;20562;-76
2022/12/13 00:04:47;;;;;;;9.60;4.90;;;;;;;-141.28;100.00;52745.28;5105217;28;20858;-74
2022/12/13 00:07:13;;;;;;;9.20;5.60;;;;;;;-141.28;100.00;52749.22;5094699;28;20441;-75
2022/12/13 00:09:42;;;;;;;7.27;4.50;;;;;;;-141.28;100.00;52774.75;5094100;28;20880;-74
2022/12/13 00:12:09;;;;;;;7.37;4.30;;;;;;;-141.28;100.00;52702.09;5093557;28;21033;-77
2022/12/13 00:14:36;;;;;;;9.13;4.80;;;;;;;-141.28;100.00;52666.72;5093711;28;20495;-77
2022/12/13 00:17:05;;;;;;;10.57;4.70;;;;;;;-141.28;100.00;52686.38;5107721;28;20523;-75
2022/12/13 00:19:32;;;;;;;7.97;4.60;;;;;;;-141.28;100.00;52662.81;5100222;28;20450;-77
2022/12/13 00:22:01;;;;;;;6.77;4.07;;;;;;;-141.28;100.00;52631.38;5092449;28;20489;-75
2022/12/13 00:24:28;;;;;;;10.33;4.70;;;;;;;-141.28;100.00;52603.88;5093255;28;20438;-75
2022/12/13 00:26:55;;;;;;;7.73;4.57;;;;;;;-141.28;100.00;52356.41;5099816;28;21067;-75
2022/12/13 00:29:22;;;;;;;6.43;3.87;;;;;;;-141.28;100.00;52576.38;5112982;28;20962;-75
2022/12/13 00:31:50;;;;;;;8.27;4.83;;;;;;;-141.28;100.00;52584.25;5106256;28;20540;-77
2022/12/13 00:34:17;;;;;;;7.97;4.27;;;;;;;-141.28;100.00;52576.38;5106271;28;20448;-78
2022/12/13 00:36:44;;;;;;;6.87;4.27;;;;;;;-141.28;100.00;52497.81;5092888;28;20560;-75
2022/12/13 00:39:13;;;;;;;9.17;4.87;;;;;;;-141.28;100.00;52552.81;5106567;28;20908;-77
2022/12/13 00:41:40;;;;;;;8.37;4.60;;;;;;;-141.28;100.00;52503.72;5093108;28;20530;-75
2022/12/13 00:44:09;;;;;;;7.93;4.47;;;;;;;-141.28;100.00;52462.47;5092667;28;20484;-77
2022/12/13 00:46:39;;;;;;;7.63;4.73;;;;;;;-141.28;100.00;51918.47;5093200;28;20993;-76
2022/12/13 00:49:06;;;;;;;9.53;4.97;;;;;;;-141.28;100.00;52438.91;5108599;28;21024;-75
2022/12/13 00:51:34;;;;;;;7.53;4.50;;;;;;;-141.28;100.00;51995.06;5111855;28;20461;-76
2022/12/13 00:54:02;;;;;;;9.53;4.83;;;;;;;-141.28;100.00;52431.03;5092810;28;20476;-76
2022/12/13 00:56:32;;;;;;;9.70;4.63;;;;;;;-141.28;100.00;52108.97;5092272;28;20458;-75
2022/12/13 00:58:59;;;;;;;9.10;4.40;;;;;;;-141.28;100.00;52372.13;5092407;28;20449;-75
2022/12/13 01:01:28;;;;;;;7.33;4.50;;;;;;;-141.28;100.00;52332.84;5093330;28;20477;-75
2022/12/13 01:03:56;;;;;;;9.20;4.50;;;;;;;-141.28;100.00;52325.00;5098439;28;20445;-76
2022/12/13 01:06:29;;;;;;;8.60;5.13;;;;;;;-141.28;100.00;52262.13;5092505;28;20446;-76
2022/12/13 01:08:56;;;;;;;9.33;4.80;;;;;;;-141.28;100.00;52328.91;5091555;28;20516;-75
2022/12/13 01:11:24;;;;;;;11.37;4.97;;;;;;;-141.28;100.00;52285.72;5109097;28;20953;-72
2022/12/13 01:13:54;;;;;;;9.57;5.20;;;;;;;-141.28;100.00;52262.13;5102528;28;20944;-74
2022/12/13 01:16:22;;;;;;;7.70;4.50;;;;;;;-141.28;100.00;52191.44;5101921;28;20456;-75
2022/12/13 01:18:48;;;;;;;8.03;4.37;;;;;;;-141.28;100.00;52183.59;5111580;28;20448;-74
2022/12/13 01:21:17;;;;;;;8.57;4.80;;;;;;;-141.28;100.00;52173.78;5097876;28;20546;-77
2022/12/13 01:23:45;;;;;;;6.93;4.80;;;;;;;-141.28;100.00;52175.72;5091921;28;20590;-74
2022/12/13 01:26:14;;;;;;;7.97;4.90;;;;;;;-141.28;100.00;52144.31;5097209;28;20478;-73
2022/12/13 01:28:42;;;;;;;9.37;4.60;;;;;;;-141.28;100.00;52161.97;5102247;28;20550;-73
2022/12/13 01:31:13;;;;;;;7.83;4.70;;;;;;;-141.28;100.00;52144.31;5102067;28;21011;-75
2022/12/13 01:33:40;;;;;;;10.13;5.07;;;;;;;-141.28;100.00;52169.84;5101974;28;20964;-72
2022/12/13 01:36:11;;;;;;;10.70;5.30;;;;;;;-141.28;100.00;52181.63;5099404;28;20851;-74
2022/12/13 01:38:38;;;;;;;9.03;5.40;;;;;;;-141.28;100.00;52118.78;5116398;28;20445;-75
2022/12/13 01:41:06;;;;;;;9.40;5.13;;;;;;;-141.28;100.00;52128.59;5118032;28;20484;-75
2022/12/13 01:43:51;;;;;;;10.80;5.33;;;;;;;-141.28;100.00;52124.66;5120660;28;20449;-74
2022/12/13 01:46:20;;;;;;;7.83;4.77;;;;;;;-141.28;100.00;52091.28;5122078;28;20943;-73
2022/12/13 01:48:52;;;;;;;10.27;5.10;;;;;;;-141.28;100.00;52071.66;5115275;28;20499;-73
2022/12/13 01:51:23;;;;;;;8.30;5.23;;;;;;;-141.28;100.00;52105.03;5100430;28;20821;-75
2022/12/13 01:53:52;;;;;;;9.13;5.03;;;;;;;-141.28;100.00;52020.59;5115355;28;20494;-74
2022/12/13 01:56:23;;;;;;;9.63;5.70;;;;;;;-141.28;100.00;52022.56;5115896;28;20467;-74
2022/12/13 01:58:54;;;;;;;10.37;5.70;;;;;;;-141.28;100.00;52065.75;5102467;28;20893;-74
2022/12/13 02:01:22;;;;;;;10.77;5.63;;;;;;;-141.28;100.00;51973.47;5094050;28;20532;-74
2022/12/13 02:03:51;;;;;;;12.33;5.93;;;;;;;-141.28;100.00;52042.19;5091452;28;20441;-76
2022/12/13 02:06:30;;;;;;;11.17;5.90;;;;;;;-141.28;100.00;52097.19;5092734;28;20890;-77
2022/12/13 02:08:58;;;;;;;9.63;5.27;;;;;;;-141.28;100.00;52038.25;5100860;28;20446;-76
2022/12/13 02:11:26;;;;;;;9.83;5.63;;;;;;;-141.28;100.00;52097.19;5091946;28;20449;-75
2022/12/13 02:13:54;;;;;;;11.13;5.80;;;;;;;-141.28;100.00;52042.19;5091422;28;20536;-78
2022/12/13 02:16:38;;;;;;;11.30;6.07;;;;;;;-141.28;100.00;52073.63;5091185;28;20583;-75
2022/12/13 02:19:41;;;;;;;13.20;6.60;;;;;;;-141.28;100.00;52038.25;5107403;28;20979;-77
2022/12/13 02:22:25;;;;;;;11.87;6.17;;;;;;;-141.28;100.00;51979.34;5112422;28;20548;-75
2022/12/13 02:25:24;;;;;;;12.57;6.63;;;;;;;-141.28;100.00;51920.44;5127451;28;20464;-74
2022/12/13 02:28:10;;;;;;;12.53;5.83;;;;;;;-141.28;100.00;51900.81;5112424;28;20480;-74
2022/12/13 02:30:41;;;;;;;12.83;6.90;;;;;;;-141.28;100.00;51914.56;5094077;28;21044;-75
2022/12/13 02:33:27;;;;;;;11.43;6.60;;;;;;;-141.28;100.00;51896.88;5091932;28;20437;-76
2022/12/13 02:36:06;;;;;;;11.47;6.43;;;;;;;-141.28;100.00;51944.00;5099625;28;20525;-77
2022/12/13 02:38:39;;;;;;;11.43;6.70;;;;;;;-141.28;100.00;51975.44;5096711;28;20452;-76
2022/12/13 02:41:14;;;;;;;12.80;7.00;;;;;;;-141.28;100.00;52042.19;5097072;28;20446;-74
2022/12/13 02:43:47;;;;;;;12.50;6.43;;;;;;;-141.28;100.00;52053.97;5098746;28;20494;-74
2022/12/13 02:46:18;;;;;;;11.43;6.83;;;;;;;-141.28;100.00;52101.09;5100262;28;20518;-75
2022/12/13 02:48:48;;;;;;;13.37;7.03;;;;;;;-141.28;100.00;52163.94;5097647;28;20453;-75
2022/12/13 02:51:17;;;;;;;12.23;6.80;;;;;;;-141.28;100.00;52216.97;5098559;28;20445;-74
2022/12/13 02:53:45;;;;;;;12.47;6.93;;;;;;;-141.28;100.00;52228.75;5096233;28;20445;-76
2022/12/13 02:56:12;;;;;;;12.40;6.43;;;;;;;-141.28;100.00;52317.13;5095131;28;20449;-78
2022/12/13 02:58:43;;;;;;;11.53;6.90;;;;;;;-141.28;100.00;52360.34;5094933;28;20506;-76
2022/12/13 03:01:27;;;;;;;11.67;6.50;;;;;;;-141.28;100.00;52356.41;5094362;28;20927;-74
2022/12/13 03:04:06;;;;;;;13.30;7.07;;;;;;;-141.28;100.00;52364.25;5094753;28;20437;-77
2022/12/13 03:06:42;;;;;;;10.90;6.63;;;;;;;-141.28;100.00;52368.19;5094867;28;20518;-77
2022/12/13 03:09:24;;;;;;;13.30;7.17;;;;;;;-141.28;100.00;52254.28;5096022;28;20875;-75
2022/12/13 03:14:56;;;;;;;11.27;6.50;;;;;;;-141.28;100.00;52344.63;5102306;28;20466;-75
2022/12/13 03:17:26;;;;;;;13.83;6.60;;;;;;;-141.28;100.00;52372.13;5114927;28;20440;-76
2022/12/13 03:19:54;;;;;;;11.70;6.63;;;;;;;-141.28;100.00;52383.91;5104687;28;20445;-75
2022/12/13 03:22:22;;;;;;;13.13;6.30;;;;;;;-141.28;100.00;52446.75;5110605;28;20577;-77
2022/12/13 03:24:53;;;;;;;12.70;6.67;;;;;;;-141.28;100.00;52501.75;5113789;28;20447;-79
2022/12/13 03:27:21;;;;;;;11.63;6.27;;;;;;;-141.28;100.00;52493.88;5095858;28;20502;-75
2022/12/13 03:29:48;;;;;;;13.30;6.33;;;;;;;-141.28;100.00;52511.56;5094231;28;20453;-75
2022/12/13 03:32:15;;;;;;;15.03;7.93;;;;;;;-141.28;100.00;52525.31;5093997;28;20499;-74
2022/12/13 03:34:43;;;;;;;12.60;7.20;;;;;;;-141.28;100.00;52544.97;5094048;28;20507;-76
2022/12/13 03:37:10;;;;;;;13.50;7.43;;;;;;;-141.28;100.00;52574.41;5108175;28;20445;-77
2022/12/13 03:39:37;;;;;;;10.50;5.80;;;;;;;-141.28;100.00;52588.16;5094308;28;20935;-78
2022/12/13 03:42:04;;;;;;;11.87;6.70;;;;;;;-141.28;100.00;52643.16;5093277;28;20543;-76
2022/12/13 03:44:31;;;;;;;13.53;7.37;;;;;;;-141.28;100.00;52639.22;5093957;28;20963;-75
2022/12/13 03:46:58;;;;;;;14.87;7.90;;;;;;;-141.28;100.00;52611.72;5099123;28;20495;-76
2022/12/13 03:49:25;;;;;;;14.37;8.00;;;;;;;-141.28;100.00;52639.22;5101625;28;20465;-75
2022/12/13 03:51:55;;;;;;;16.33;7.70;;;;;;;-141.28;100.00;52611.72;5093577;28;20434;-75
2022/12/13 03:54:22;;;;;;;17.17;8.27;;;;;;;-141.28;100.00;52658.88;5093677;28;20450;-77
2022/12/13 03:56:51;;;;;;;17.00;8.10;;;;;;;-141.28;100.00;52664.75;5095493;28;20453;-75
2022/12/13 03:59:18;;;;;;;15.00;8.20;;;;;;;-141.28;100.00;52631.38;5113992;28;20565;-76
2022/12/13 04:01:45;;;;;;;14.70;7.73;;;;;;;-141.28;100.00;52635.31;5096872;28;21034;-74
2022/12/13 04:04:12;;;;;;;15.13;8.03;;;;;;;-141.28;100.00;52692.25;5093238;28;20510;-75
2022/12/13 04:06:39;;;;;;;15.93;8.53;;;;;;;-141.28;100.00;52654.94;5093413;28;20441;-74
2022/12/13 04:09:08;;;;;;;17.63;8.77;;;;;;;-141.28;100.00;52717.81;5098278;28;20449;-77
2022/12/13 04:14:19;;;;;;;15.63;9.13;;;;;;;-141.28;100.00;52672.63;5108640;28;20439;-75
2022/12/13 04:16:47;;;;;;;16.20;8.90;;;;;;;-141.28;100.00;52713.88;5112915;28;20592;-77
2022/12/13 04:19:14;;;;;;;15.73;8.80;;;;;;;-141.28;100.00;52717.81;5099191;28;20934;-76
2022/12/13 04:21:40;;;;;;;16.00;9.10;;;;;;;-141.28;100.00;52706.00;5104473;28;20515;-74
2022/12/13 04:24:09;;;;;;;14.20;8.57;;;;;;;-141.28;100.00;52590.13;5092771;28;20454;-77
2022/12/13 04:26:37;;;;;;;17.30;8.70;;;;;;;-141.28;100.00;52753.16;5102347;28;20534;-74
2022/12/13 04:29:04;;;;;;;16.00;8.37;;;;;;;-141.28;100.00;52808.16;5108825;28;20900;-77
2022/12/13 04:31:31;;;;;;;17.70;7.70;;;;;;;-141.28;100.00;52790.47;5092686;28;20449;-76
2022/12/13 04:33:58;;;;;;;15.70;8.20;;;;;;;-141.28;100.00;52825.81;5092602;28;20569;-79
2022/12/13 04:36:25;;;;;;;21.87;8.80;;;;;;;-141.28;100.00;52833.69;5093215;28;20461;-75
2022/12/13 04:38:52;;;;;;;16.00;8.50;;;;;;;-141.28;100.00;52874.94;5109807;28;20510;-77
2022/12/13 04:41:21;;;;;;;14.43;8.33;;;;;;;-141.28;100.00;52867.06;5107596;28;20446;-78
2022/12/13 04:43:51;;;;;;;17.03;9.00;;;;;;;-141.28;100.00;52201.25;5094724;28;20481;-77
2022/12/13 04:46:19;;;;;;;16.67;8.47;;;;;;;-141.28;100.00;52865.13;5103653;28;20450;-76
2022/12/13 04:48:46;;;;;;;14.20;7.80;;;;;;;-141.28;100.00;52890.66;5092497;28;20956;-72
2022/12/13 04:51:14;;;;;;;14.17;8.33;;;;;;;-141.28;100.00;52466.41;5092473;28;20589;-76
2022/12/13 04:53:42;;;;;;;17.27;8.43;;;;;;;-141.28;100.00;52776.72;5092523;28;20450;-75
2022/12/13 04:56:09;;;;;;;15.03;9.17;;;;;;;-141.28;100.00;52878.88;5092310;28;20450;-75
2022/12/13 04:58:37;;;;;;;16.50;8.83;;;;;;;-141.28;100.00;52951.53;5091898;28;20481;-76
2022/12/13 05:01:06;;;;;;;15.63;7.97;;;;;;;-141.28;100.00;52949.56;5106477;28;20456;-72
2022/12/13 05:03:34;;;;;;;15.50;8.60;;;;;;;-141.28;100.00;52982.97;5095646;28;20485;-75
2022/12/13 05:06:05;;;;;;;18.47;9.03;;;;;;;-141.28;100.00;52902.44;5091969;28;20507;-76
2022/12/13 05:08:32;;;;;;;16.90;9.40;;;;;;;-141.28;100.00;52994.75;5105474;28;20446;-77
2022/12/13 05:10:59;;;;;;;16.43;9.37;;;;;;;-141.28;100.00;52906.38;5094774;28;20574;-77
2022/12/13 05:13:26;;;;;;;16.10;8.33;;;;;;;-141.28;100.00;53006.53;5113313;28;20448;-75
2022/12/13 05:15:59;;;;;;;18.20;8.93;;;;;;;-141.28;100.00;53010.47;5108841;28;20528;-78
2022/12/13 05:18:26;;;;;;;20.37;9.93;;;;;;;-141.28;100.00;52961.38;5092318;28;20520;-75
2022/12/13 05:20:53;;;;;;;16.67;9.07;;;;;;;-141.28;100.00;52977.06;5091868;28;20503;-74
2022/12/13 05:23:24;;;;;;;19.50;8.93;;;;;;;-141.28;100.00;52988.88;5103741;28;20507;-73
2022/12/13 05:25:53;;;;;;;15.47;7.97;;;;;;;-141.28;100.00;53006.53;5093195;28;20896;-76
2022/12/13 05:28:24;;;;;;;18.67;9.20;;;;;;;-141.28;100.00;53000.66;5091787;28;20571;-75
2022/12/13 05:30:51;;;;;;;19.57;10.13;;;;;;;-141.28;100.00;52764.94;5097887;28;20534;-76
2022/12/13 05:33:20;;;;;;;22.27;11.10;;;;;;;-141.28;100.00;53043.88;5111807;28;20510;-76
2022/12/13 05:35:49;;;;;;;19.60;9.50;;;;;;;-141.28;100.00;53004.56;5111848;28;20468;-75
2022/12/13 05:38:18;;;;;;;17.63;9.77;;;;;;;-141.28;100.00;53002.63;5114256;28;20234;-76
2022/12/13 05:40:46;;;;;;;19.17;10.40;;;;;;;-141.28;100.00;53018.31;5112052;28;20939;-74
2022/12/13 05:43:14;;;;;;;18.03;9.60;;;;;;;-141.28;100.00;53000.66;5099567;28;20480;-78
2022/12/13 05:45:41;;;;;;;17.87;9.63;;;;;;;-141.28;100.00;52768.88;5098730;28;20453;-74
2022/12/13 05:48:09;;;;;;;17.47;9.13;;;;;;;-141.28;100.00;53047.78;5091727;28;20445;-75
2022/12/13 05:50:38;;;;;;;19.13;9.97;;;;;;;-141.28;100.00;52884.75;5091923;28;20819;-76
2022/12/13 05:53:05;;;;;;;18.23;9.27;;;;;;;-141.28;100.00;53016.38;5092254;28;20457;-76
2022/12/13 05:55:32;;;;;;;19.17;9.30;;;;;;;-141.28;100.00;52984.94;5105063;28;20441;-74
2022/12/13 05:58:01;;;;;;;20.50;10.27;;;;;;;-141.28;100.00;52949.56;5111564;28;20497;-75
2022/12/13 06:00:28;;;;;;;19.73;10.10;;;;;;;-141.28;100.00;52961.38;5110572;28;20445;-74
2022/12/13 06:02:55;;;;;;;23.27;10.43;;;;;;;-141.28;100.00;52981.00;5103015;28;20563;-76
2022/12/13 06:05:23;;;;;;;21.00;9.80;;;;;;;-141.28;100.00;52847.44;5093125;28;20980;-77
2022/12/13 06:07:54;;;;;;;18.43;9.90;;;;;;;-141.28;100.00;52937.78;5091507;28;20815;-74
2022/12/13 06:10:23;;;;;;;19.47;10.37;;;;;;;-141.28;100.00;52926.00;5091638;28;20506;-77
2022/12/13 06:12:50;;;;;;;24.30;10.30;;;;;;;-141.28;100.00;52855.28;5091979;28;20454;-75
2022/12/13 06:15:17;;;;;;;17.73;10.13;;;;;;;-141.28;100.00;52933.88;5091159;28;20453;-75
2022/12/13 06:17:45;;;;;;;26.30;11.57;;;;;;;-141.28;100.00;52855.28;5093441;28;20445;-74
2022/12/13 06:20:13;;;;;;;22.30;10.60;;;;;;;-141.28;100.00;52869.03;5113761;28;20464;-77
2022/12/13 06:22:41;;;;;;;18.77;9.53;;;;;;;-141.28;100.00;52839.56;5102869;28;20485;-76
2022/12/13 06:25:09;;;;;;;18.33;9.20;;;;;;;-141.28;100.00;52796.38;5095354;28;20436;-77
2022/12/13 06:27:36;;;;;;;17.30;9.13;;;;;;;-141.28;100.00;52816.00;5108386;28;20475;-77
2022/12/13 06:30:04;;;;;;;17.33;9.30;;;;;;;-141.28;100.00;52788.50;5108763;28;20437;-75
2022/12/13 06:32:31;;;;;;;16.83;9.23;;;;;;;-141.28;100.00;52713.88;5094998;28;20453;-73
2022/12/13 06:34:58;;;;;;;17.43;9.70;;;;;;;-141.28;100.00;52607.81;5095422;28;20445;-76
2022/12/13 06:37:25;;;;;;;19.07;9.77;;;;;;;-141.28;100.00;52647.09;5108720;28;20951;-78
2022/12/13 06:39:52;;;;;;;19.30;10.80;;;;;;;-141.28;100.00;52588.16;5099959;28;20449;-75
2022/12/13 06:42:20;;;;;;;21.17;9.67;;;;;;;-141.28;100.00;52466.41;5119263;28;20517;-75
2022/12/13 06:44:50;;;;;;;19.63;10.10;;;;;;;-141.28;100.00;52541.03;5105705;28;20876;-74
2022/12/13 06:47:18;;;;;;;19.37;10.93;;;;;;;-141.28;100.00;52476.22;5097303;28;20507;-76
2022/12/13 06:49:46;;;;;;;18.90;10.43;;;;;;;-141.28;100.00;52442.81;5095189;28;20449;-74
2022/12/13 06:52:13;;;;;;;20.33;10.50;;;;;;;-141.28;100.00;52427.13;5095191;28;20948;-74
2022/12/13 06:54:41;;;;;;;18.73;10.00;;;;;;;-141.28;100.00;52415.31;5095074;28;20964;-74
2022/12/13 06:57:08;;;;;;;19.50;9.70;;;;;;;-141.28;100.00;52448.72;5107244;28;20516;-73
2022/12/13 06:59:36;;;;;;;19.37;10.10;;;;;;;-141.28;100.00;52407.47;5119571;28;20454;-76
2022/12/13 07:02:03;;;;;;;19.63;9.70;;;;;;;-141.28;100.00;52346.59;5095072;28;20474;-75
2022/12/13 07:04:31;;;;;;;19.07;10.17;;;;;;;-141.28;100.00;52107.00;5094567;28;20921;-77
2022/12/13 07:06:58;;;;;;;20.23;10.63;;;;;;;-141.28;100.00;52407.47;5105514;28;20464;-79
2022/12/13 07:09:26;;;;;;;19.00;9.97;;;;;;;-141.28;100.00;52533.16;5096967;28;20491;-73
2022/12/13 07:11:53;;;;;;;17.83;10.20;;;;;;;-141.28;100.00;52682.44;5094567;28;20450;-75
2022/12/13 07:14:20;;;;;;;19.90;10.43;;;;;;;-141.28;100.00;52619.59;5094657;28;20456;-79
2022/12/13 07:16:50;;;;;;;19.97;9.93;;;;;;;-141.28;100.00;52599.94;5105870;28;20539;-77
2022/12/13 07:19:17;;;;;;;19.13;10.40;;;;;;;-141.28;100.00;52548.88;5114480;28;20870;-77
2022/12/13 07:21:44;;;;;;;17.07;9.93;;;;;;;-141.28;100.00;52376.06;5114795;28;20518;-75
2022/12/13 07:24:11;;;;;;;24.03;11.07;;;;;;;-141.28;100.00;52309.28;5107857;28;20542;-77
2022/12/13 07:26:38;;;;;;;21.43;10.13;;;;;;;-141.28;100.00;52181.63;5094545;28;20560;-77
2022/12/13 07:29:06;;;;;;;17.67;9.77;;;;;;;-141.28;100.00;51955.78;5066676;28;20447;-77
2022/12/13 07:31:35;;;;;;;15.50;8.40;;;;;;;-141.28;100.00;51853.69;5065489;28;20508;-74
2022/12/13 07:34:04;;;;;;;19.93;9.90;;;;;;;-141.28;100.00;51700.50;5060769;28;20443;-79
2022/12/13 07:36:31;;;;;;;16.00;8.57;;;;;;;-141.28;100.00;51567.00;5071922;28;20847;-75
2022/12/13 07:38:58;;;;;;;15.23;9.23;;;;;;;-141.28;100.00;51390.28;5062080;28;20462;-75
2022/12/13 07:41:26;;;;;;;18.23;8.43;;;;;;;-141.28;100.00;51311.75;5065227;28;20447;-74
2022/12/13 07:43:54;;;;;;;17.03;9.57;;;;;;;-141.28;100.00;51146.81;5059223;28;20491;-75
2022/12/13 07:46:21;;;;;;;17.83;8.93;;;;;;;-141.28;100.00;51109.53;5059776;28;20447;-75
2022/12/13 07:48:48;;;;;;;20.33;9.50;;;;;;;-141.28;100.00;51007.44;5056843;28;20459;-76
2022/12/13 07:51:17;;;;;;;17.17;8.77;;;;;;;-141.28;100.00;51009.41;5063553;28;20479;-74
2022/12/13 07:53:44;;;;;;;19.70;9.90;;;;;;;-141.28;100.00;50997.63;5074891;28;20492;-75
2022/12/13 07:56:12;;;;;;;20.83;10.47;;;;;;;-141.28;100.00;50985.84;5057214;28;20455;-76
2022/12/13 07:58:40;;;;;;;20.93;9.73;;;;;;;-141.28;100.00;50978.00;5066567;28;20451;-77
2022/12/13 08:01:10;;;;;;;18.20;9.77;;;;;;;-141.28;100.00;50966.22;5053134;28;20451;-76
2022/12/13 08:03:38;;;;;;;14.83;8.13;;;;;;;-141.28;100.00;50948.53;5053185;28;20533;-76
2022/12/13 08:06:06;;;;;;;16.87;8.87;;;;;;;-141.28;100.00;50926.94;5053250;28;20482;-75
2022/12/13 08:08:36;;;;;;;14.90;8.43;;;;;;;-141.28;100.00;50926.94;5058625;28;20450;-77
2022/12/13 08:11:07;;;;;;;15.23;8.60;;;;;;;-141.28;100.00;50903.41;5061002;28;20871;-76
2022/12/13 08:13:35;;;;;;;16.13;8.80;;;;;;;-141.28;100.00;50909.28;5064039;28;20981;-79
2022/12/13 08:16:03;;;;;;;17.97;9.20;;;;;;;-141.28;100.00;50915.16;5066745;28;20504;-76
2022/12/13 08:18:31;;;;;;;20.07;9.43;;;;;;;-141.28;100.00;50883.75;5054120;28;20448;-77
2022/12/13 08:21:00;;;;;;;17.37;8.47;;;;;;;-141.28;100.00;50871.97;5054107;28;20534;-75
2022/12/13 08:23:27;;;;;;;18.77;9.33;;;;;;;-141.28;100.00;50871.97;5067106;28;20538;-75
2022/12/13 08:25:56;;;;;;;15.93;8.17;;;;;;;-141.28;100.00;50850.38;5057156;28;20470;-74
2022/12/13 08:28:27;;;;;;;15.57;8.33;;;;;;;-141.28;100.00;50842.53;5101540;28;20474;-75
2022/12/13 08:30:54;;;;;;;17.07;9.17;;;;;;;-141.28;100.00;50856.28;5113080;28;20445;-75
2022/12/13 08:33:21;;;;;;;16.40;8.87;;;;;;;-141.28;100.00;50852.34;5106589;28;20457;-73
2022/12/13 08:35:49;;;;;;;16.00;8.70;;;;;;;-141.28;100.00;50785.59;5118239;28;20457;-74
2022/12/13 08:38:16;;;;;;;14.73;8.37;;;;;;;-141.28;100.00;50830.75;5122302;28;20451;-73
2022/12/13 08:40:43;;;;;;;14.37;7.57;;;;;;;-141.28;100.00;50793.47;5120238;28;20496;-79
2022/12/13 08:43:13;;;;;;;14.17;7.80;;;;;;;-141.28;100.00;50826.84;5108461;28;20523;-76
2022/12/13 08:45:41;;;;;;;13.47;7.53;;;;;;;-141.28;100.00;50773.81;5094567;28;20872;-75
2022/12/13 08:48:09;;;;;;;14.07;7.80;;;;;;;-141.28;100.00;50817.03;5093068;28;20453;-76
2022/12/13 08:50:36;;;;;;;14.90;7.97;;;;;;;-141.28;100.00;50746.34;5105324;28;20441;-76
2022/12/13 08:53:04;;;;;;;14.47;8.00;;;;;;;-141.28;100.00;50801.31;5106961;28;20453;-78
2022/12/13 08:55:31;;;;;;;13.27;7.43;;;;;;;-141.28;100.00;50840.56;5105301;28;20471;-77
2022/12/13 08:57:58;;;;;;;14.27;7.70;;;;;;;-141.28;100.00;50805.25;5105323;28;20454;-75
2022/12/13 09:00:26;;;;;;;15.57;6.93;;;;;;;-141.28;100.00;50789.53;5092754;28;20775;-75
2022/12/13 09:02:56;;;;;;;11.63;7.33;;;;;;;-141.28;100.00;50871.97;5096057;28;20438;-74
2022/12/13 09:05:24;;;;;;;11.77;6.67;;;;;;;-141.28;100.00;50895.53;5095703;28;20477;-79
2022/12/13 09:07:55;;;;;;;11.07;6.07;;;;;;;-141.28;100.00;50903.41;5096583;28;20458;-75
2022/12/13 09:10:23;;;;;;;10.17;6.30;;;;;;;-141.28;100.00;50887.69;5108374;28;20449;-79
2022/12/13 09:12:50;;;;;;;10.13;5.50;;;;;;;-141.28;100.00;50868.06;5093498;28;20441;-77
2022/12/13 09:15:20;;;;;;;11.17;5.83;;;;;;;-141.28;100.00;50864.13;5092384;28;20454;-75
2022/12/13 09:17:50;;;;;;;10.87;6.07;;;;;;;-141.28;100.00;50887.69;5111232;28;20505;-77
2022/12/13 09:20:17;;;;;;;13.33;6.73;;;;;;;-141.28;100.00;50895.53;5100575;28;20451;-78
2022/12/13 09:22:44;;;;;;;16.63;7.43;;;;;;;-141.28;100.00;50875.91;5111934;28;20807;-78
2022/12/13 09:25:12;;;;;;;20.90;7.97;;;;;;;-141.28;100.00;50899.47;5099179;28;20485;-77
2022/12/13 09:27:39;;;;;;;13.53;6.93;;;;;;;-141.28;100.00;50856.28;5091664;28;20473;-76
2022/12/13 09:30:10;;;;;;;14.30;7.70;;;;;;;-141.28;100.00;50864.13;5092533;28;20795;-75
2022/12/13 09:32:37;;;;;;;14.50;7.10;;;;;;;-141.28;100.00;50899.47;5099674;28;20834;-76
2022/12/13 09:35:06;;;;;;;10.87;5.77;;;;;;;-141.28;100.00;50903.41;5111846;28;20871;-74
2022/12/13 09:37:33;;;;;;;12.53;6.83;;;;;;;-141.28;100.00;50911.25;5097194;28;20450;-78
2022/12/13 09:40:01;;;;;;;15.80;6.73;;;;;;;-141.28;100.00;50913.22;5091751;28;20601;-75
2022/12/13 09:42:30;;;;;;;13.00;6.77;;;;;;;-141.28;100.00;50952.47;5106227;28;20456;-75
2022/12/13 09:45:00;;;;;;;12.47;6.70;;;;;;;-141.28;100.00;50978.00;5106140;28;20492;-77
2022/12/13 09:47:31;;;;;;;13.67;6.77;;;;;;;-141.28;100.00;50960.31;5101391;28;20449;-74
2022/12/13 09:50:00;;;;;;;15.77;8.20;;;;;;;-141.28;100.00;50930.88;5096005;28;20506;-75
2022/12/13 09:52:36;;;;;;;20.00;8.33;;;;;;;-141.28;100.00;50954.44;5100744;28;20453;-76
2022/12/13 09:55:16;;;;;;;18.43;9.13;;;;;;;-141.28;100.00;50997.63;5091027;28;20445;-76
2022/12/13 09:57:44;;;;;;;17.53;8.30;;;;;;;-141.28;100.00;51005.47;5091434;28;20959;-76
2022/12/13 10:00:15;;;;;;;15.80;9.00;;;;;;;-141.28;100.00;51029.03;5091675;28;20449;-78
2022/12/13 10:02:45;;;;;;;14.43;8.17;;;;;;;-141.28;100.00;51040.81;5091848;28;20444;-76
2022/12/13 10:05:22;;;;;;;16.07;10.00;;;;;;;-141.28;100.00;51019.22;5101081;28;20925;-76
2022/12/13 10:07:54;;;;;;;24.83;12.50;;;;;;;-141.28;100.00;51015.28;5107430;28;20526;-78
2022/12/13 10:10:22;;;;;;;19.43;9.87;;;;;;;-141.28;100.00;50991.72;5091295;28;20448;-77
2022/12/13 10:12:55;;;;;;;19.63;9.43;;;;;;;-141.28;100.00;50952.47;5096722;28;20448;-75
2022/12/13 10:15:24;;;;;;;16.67;9.10;;;;;;;-141.28;100.00;50962.28;5099295;28;20498;-76
2022/12/13 10:17:51;;;;;;;19.63;9.60;;;;;;;-141.28;100.00;50958.38;5091595;28;20450;-75
2022/12/13 10:20:24;;;;;;;20.43;10.47;;;;;;;-141.28;100.00;50942.66;5091828;28;20968;-75
2022/12/13 10:22:54;;;;;;;14.03;8.43;;;;;;;-141.28;100.00;51013.31;5091375;28;20450;-75
2022/12/13 10:25:46;;;;;;;15.60;8.97;;;;;;;-141.28;100.00;51048.66;5090672;28;21011;-74
2022/12/13 10:28:14;;;;;;;16.00;8.60;;;;;;;-141.28;100.00;51076.16;5091200;28;20538;-77
2022/12/13 10:30:43;;;;;;;17.57;9.50;;;;;;;-141.28;100.00;51572.88;5104148;28;20442;-76
2022/12/13 10:33:22;;;;;;;20.03;9.77;;;;;;;-141.28;100.00;51830.09;5091408;28;20438;-76
2022/12/13 10:36:03;;;;;;;18.00;9.47;;;;;;;-141.28;100.00;51867.41;5092607;28;20915;-75
2022/12/13 10:38:36;;;;;;;18.13;8.70;;;;;;;-141.28;100.00;51861.53;5100863;28;20450;-74
2022/12/13 10:41:24;;;;;;;19.70;10.30;;;;;;;-141.28;100.00;51779.06;5103996;28;20476;-77
2022/12/13 10:44:08;;;;;;;21.03;11.53;;;;;;;-141.28;100.00;51883.13;5105500;28;20480;-77
2022/12/13 10:46:39;;;;;;;20.70;10.20;;;;;;;-141.28;100.00;51696.59;5097767;28;20449;-77
2022/12/13 10:49:17;;;;;;;20.47;10.53;;;;;;;-141.28;100.00;51531.66;5111135;28;20453;-78
2022/12/13 10:51:44;;;;;;;17.50;11.33;;;;;;;-141.28;100.00;51276.41;5091907;28;21020;-80
2022/12/13 10:54:18;;;;;;;14.77;9.23;;;;;;;-141.28;100.00;50848.44;5103497;28;20529;-77
2022/12/13 10:56:49;;;;;;;18.70;10.37;;;;;;;-141.28;100.00;50530.41;5100789;28;20947;-76
2022/12/13 10:59:49;;;;;;;18.53;11.40;;;;;;;-141.28;100.00;50899.47;5096948;28;20440;-78
2022/12/13 11:02:29;;;;;;;17.70;11.10;;;;;;;-141.28;100.00;50930.88;5096352;28;20947;-77
2022/12/13 11:04:57;;;;;;;20.23;11.73;;;;;;;-141.28;100.00;50946.59;5090664;28;20488;-77
2022/12/13 11:07:27;;;;;;;22.93;12.13;;;;;;;-141.28;100.00;50555.94;5109155;28;20503;-80
2022/12/13 11:09:58;;;;;;;21.10;12.07;;;;;;;-141.28;100.00;50785.59;5101108;28;20477;-76
2022/12/13 11:12:27;;;;;;;19.67;11.60;;;;;;;-141.28;100.00;50809.16;5100731;28;20449;-79
2022/12/13 11:14:57;;;;;;;22.90;12.03;;;;;;;-141.28;100.00;50499.00;5094287;28;20450;-76
2022/12/13 11:17:26;;;;;;;17.47;10.63;;;;;;;-141.28;100.00;50805.25;5094208;28;20458;-77
2022/12/13 11:19:56;;;;;;;17.07;9.70;;;;;;;-141.28;100.00;50720.81;5094283;28;20838;-78